Time;durP1;ratioP1;P1;durP2;ratioP2;P2;SDS_P1;SDS_P2;PMS_P1;PMS_P2;Temp;Humidity;BMP_temperature;BMP_pressure;BME280_temperature;BME280_humidity;BME280_pressure;Samples;Min_cycle;Max_cycle;Signal;HPM_P1;HPM_P2
2023/05/04 00:01:09;;;;;;;10.18;5.97;;;;;;;;;;5011071;28;20045;-75
2023/05/04 00:03:43;;;;;;;7.57;5.32;;;;;;;;;;4884659;29;20043;-75
2023/05/04 00:06:25;;;;;;;10.27;5.82;;;;;;;;;;4932693;29;20106;-75
2023/05/04 00:09:33;;;;;;;;;;;;;;;;;;;;;
2023/05/04 00:15:42;;;;;;;10.52;6.00;;;;;;;;;;4919607;29;20522;-75
2023/05/04 00:18:08;;;;;;;11.13;5.75;;;;;;;;;;4953409;28;20046;-75
2023/05/04 00:20:34;;;;;;;11.85;6.60;;;;;;;;;;5012453;28;20144;-74
2023/05/04 00:23:00;;;;;;;11.30;6.20;;;;;;;;;;5012465;28;20057;-74
2023/05/04 00:25:26;;;;;;;9.93;6.03;;;;;;;;;;5012317;28;20076;-74
2023/05/04 00:28:33;;;;;;;12.93;6.00;;;;;;;;;;5030002;23;20038;-74
2023/05/04 00:31:25;;;;;;;8.95;5.45;;;;;;;;;;5030512;28;20512;-74
2023/05/04 00:36:55;;;;;;;9.13;5.65;;;;;;;;;;5026107;28;20087;-74
2023/05/04 00:39:34;;;;;;;10.07;6.43;;;;;;;;;;5014043;28;20022;-75
2023/05/04 00:42:18;;;;;;;10.50;6.60;;;;;;;;;;5032003;28;20071;-75
2023/05/04 00:45:03;;;;;;;;;;;;;;;;;;;;;
2023/05/04 00:47:51;;;;;;;15.25;6.50;;;;;;;;;;5028142;28;20042;-75
2023/05/04 00:50:23;;;;;;;11.25;6.10;;;;;;;;;;5015608;28;20050;-75
2023/05/04 00:53:15;;;;;;;9.77;6.05;;;;;;;;;;5031735;28;20025;-74
2023/05/04 00:56:17;;;;;;;12.18;7.00;;;;;;;;;;5022539;28;20470;-74
2023/05/04 00:59:07;;;;;;;11.27;5.90;;;;;;;;;;5051122;23;20053;-74
2023/05/04 01:05:08;;;;;;;10.18;5.97;;;;;;;;;;4989586;28;20113;-75
2023/05/04 01:08:00;;;;;;;11.60;6.63;;;;;;;;;;4983382;28;20027;-74
2023/05/04 01:11:21;;;;;;;;;;;;;;;;;;;;;
2023/05/04 01:14:41;;;;;;;8.50;6.32;;;;;;;;;;4957589;28;20031;-75
2023/05/04 01:17:37;;;;;;;10.38;6.38;;;;;;;;;;4986812;23;20064;-74
2023/05/04 01:20:23;;;;;;;11.10;6.72;;;;;;;;;;4991696;28;20065;-74
2023/05/04 01:23:07;;;;;;;12.00;6.80;;;;;;;;;;5009643;28;20026;-74
2023/05/04 01:26:01;;;;;;;12.55;7.90;;;;;;;;;;5007265;28;20026;-74
2023/05/04 01:34:32;;;;;;;11.52;6.88;;;;;;;;;;5015137;28;20053;-74
2023/05/04 01:37:37;;;;;;;;;;;;;;;;;;;;;
2023/05/04 01:40:26;;;;;;;12.60;7.03;;;;;;;;;;4897812;29;20056;-74
2023/05/04 01:43:15;;;;;;;12.20;6.95;;;;;;;;;;4904910;29;20625;-74
2023/05/04 01:49:21;;;;;;;9.90;6.93;;;;;;;;;;4998726;28;20526;-75
2023/05/04 01:51:48;;;;;;;15.20;7.65;;;;;;;;;;4994463;28;20077;-75
2023/05/04 01:54:14;;;;;;;10.65;6.97;;;;;;;;;;4997371;28;20030;-74
2023/05/04 01:56:40;;;;;;;10.45;7.53;;;;;;;;;;5014740;28;20040;-75
2023/05/04 01:59:07;;;;;;;12.98;7.55;;;;;;;;;;5015027;28;20488;-75
2023/05/04 02:01:32;;;;;;;13.63;7.53;;;;;;;;;;4997824;28;20408;-74
2023/05/04 02:03:58;;;;;;;15.30;7.72;;;;;;;;;;5015930;28;20022;-75
2023/05/04 02:06:24;;;;;;;12.55;7.50;;;;;;;;;;5015867;28;20041;-75
2023/05/04 02:08:51;;;;;;;13.18;7.53;;;;;;;;;;5015589;28;20026;-75
2023/05/04 02:11:17;;;;;;;11.95;7.85;;;;;;;;;;5016437;28;20030;-74
2023/05/04 02:13:43;;;;;;;12.20;7.38;;;;;;;;;;5016659;28;20136;-73
2023/05/04 02:16:08;;;;;;;13.20;8.40;;;;;;;;;;5016047;28;20030;-74
2023/05/04 02:18:34;;;;;;;15.63;7.97;;;;;;;;;;5015847;28;20025;-75
2023/05/04 02:21:00;;;;;;;10.10;7.53;;;;;;;;;;5016449;28;20018;-75
2023/05/04 02:23:26;;;;;;;11.52;7.45;;;;;;;;;;5021303;28;20118;-74
2023/05/04 02:25:54;;;;;;;11.85;7.32;;;;;;;;;;5020731;28;20114;-74
2023/05/04 02:28:20;;;;;;;13.63;7.30;;;;;;;;;;5002334;28;20022;-75
2023/05/04 02:30:46;;;;;;;11.23;7.43;;;;;;;;;;5014846;28;20109;-75
2023/05/04 02:33:12;;;;;;;12.10;7.75;;;;;;;;;;5014440;28;20018;-74
2023/05/04 02:35:38;;;;;;;12.52;8.05;;;;;;;;;;5014449;28;20022;-74
2023/05/04 02:38:04;;;;;;;18.02;8.25;;;;;;;;;;5014180;28;20503;-74
2023/05/04 02:40:30;;;;;;;10.27;7.47;;;;;;;;;;5014449;28;20025;-74
2023/05/04 02:42:56;;;;;;;15.23;7.80;;;;;;;;;;5014379;28;20444;-75
2023/05/04 02:45:22;;;;;;;13.48;8.32;;;;;;;;;;5014077;28;20026;-74
2023/05/04 02:47:48;;;;;;;11.77;7.53;;;;;;;;;;5013687;28;20030;-74
2023/05/04 02:50:14;;;;;;;15.15;8.60;;;;;;;;;;4996350;28;20018;-74
2023/05/04 02:52:40;;;;;;;13.43;8.48;;;;;;;;;;5014132;28;20107;-75
2023/05/04 02:55:06;;;;;;;15.25;8.18;;;;;;;;;;5013888;28;20432;-75
2023/05/04 02:58:03;;;;;;;13.25;8.05;;;;;;;;;;5041337;23;20092;-75
2023/05/04 03:07:00;;;;;;;11.88;8.60;;;;;;;;;;4895087;29;20411;-74
2023/05/04 03:16:19;;;;;;;;;;;;;;;;;;;;;
2023/05/04 03:18:45;;;;;;;14.25;8.52;;;;;;;;;;4952165;29;20486;-74
2023/05/04 03:21:11;;;;;;;12.68;8.27;;;;;;;;;;4952563;29;20106;-74
2023/05/04 03:23:37;;;;;;;12.65;8.43;;;;;;;;;;5023913;28;20044;-74
2023/05/04 03:26:03;;;;;;;12.93;9.02;;;;;;;;;;5052848;28;20021;-74
2023/05/04 03:42:32;;;;;;;;;;;;;;;;;;;;;
2023/05/04 03:48:53;;;;;;;13.35;8.57;;;;;;;;;;4990073;28;20030;-75
2023/05/04 03:51:19;;;;;;;14.93;9.02;;;;;;;;;;5052688;28;20067;-74
2023/05/04 03:53:45;;;;;;;13.23;9.23;;;;;;;;;;5052727;28;20079;-74
2023/05/04 03:56:11;;;;;;;15.88;8.85;;;;;;;;;;5052501;28;20074;-74
2023/05/04 04:05:55;;;;;;;;;;;;;;;;;;;;;
2023/05/04 04:11:48;;;;;;;13.38;7.93;;;;;;;;;;4991805;28;20124;-74
2023/05/04 04:20:42;;;;;;;8.93;6.47;;;;;;;;;;4951092;29;20031;-74
2023/05/04 04:23:08;;;;;;;8.90;6.47;;;;;;;;;;5010284;28;20428;-74
2023/05/04 04:25:34;;;;;;;11.05;6.35;;;;;;;;;;5012427;28;20123;-74
2023/05/04 04:28:00;;;;;;;7.97;5.05;;;;;;;;;;5011920;28;20026;-74
2023/05/04 04:30:26;;;;;;;9.48;5.97;;;;;;;;;;5012465;28;20076;-74
2023/05/04 04:32:53;;;;;;;8.10;4.75;;;;;;;;;;5012374;28;20025;-75
2023/05/04 04:35:19;;;;;;;7.03;4.72;;;;;;;;;;5012260;28;20117;-74
2023/05/04 04:37:45;;;;;;;10.35;4.70;;;;;;;;;;5011652;28;20114;-75
2023/05/04 04:40:11;;;;;;;12.30;4.97;;;;;;;;;;5012158;28;20053;-75
2023/05/04 04:42:38;;;;;;;6.43;3.92;;;;;;;;;;5013346;28;20084;-74
2023/05/04 04:45:04;;;;;;;7.28;4.22;;;;;;;;;;5016058;28;20022;-75
2023/05/04 04:47:31;;;;;;;9.00;4.00;;;;;;;;;;5015584;28;20432;-75
2023/05/04 04:49:57;;;;;;;5.68;3.80;;;;;;;;;;5016089;28;20503;-75
2023/05/04 04:52:23;;;;;;;5.75;3.92;;;;;;;;;;5016016;28;20386;-76
2023/05/04 04:54:49;;;;;;;8.60;3.90;;;;;;;;;;4998268;28;20030;-76
2023/05/04 04:57:15;;;;;;;8.75;3.28;;;;;;;;;;5015746;28;20030;-75
2023/05/04 04:59:41;;;;;;;6.28;3.90;;;;;;;;;;5016018;28;20022;-75
2023/05/04 05:02:08;;;;;;;5.60;4.10;;;;;;;;;;5015668;28;20543;-76
2023/05/04 05:04:34;;;;;;;6.25;3.42;;;;;;;;;;5015824;28;20022;-75
2023/05/04 05:07:00;;;;;;;5.13;3.28;;;;;;;;;;5015556;28;20029;-75
2023/05/04 05:09:26;;;;;;;7.20;3.20;;;;;;;;;;5015508;28;20468;-75
2023/05/04 05:11:52;;;;;;;8.15;3.35;;;;;;;;;;5015527;28;20038;-74
2023/05/04 05:14:18;;;;;;;6.43;3.63;;;;;;;;;;5015471;28;20179;-76
2023/05/04 05:16:44;;;;;;;9.00;3.60;;;;;;;;;;5014824;28;20392;-75
2023/05/04 05:19:10;;;;;;;10.05;3.28;;;;;;;;;;4997939;28;20526;-75
2023/05/04 05:21:36;;;;;;;6.45;3.42;;;;;;;;;;5015419;28;20022;-75
2023/05/04 05:24:02;;;;;;;5.68;3.17;;;;;;;;;;5014978;28;20392;-75
2023/05/04 05:26:29;;;;;;;6.18;3.20;;;;;;;;;;5015365;28;20168;-76
2023/05/04 05:28:55;;;;;;;6.75;3.15;;;;;;;;;;5015013;28;20030;-75
2023/05/04 05:31:21;;;;;;;8.05;3.88;;;;;;;;;;5015009;28;20034;-75
2023/05/04 05:33:47;;;;;;;5.15;3.25;;;;;;;;;;5015308;28;20080;-75
2023/05/04 05:36:13;;;;;;;4.78;3.38;;;;;;;;;;5014868;28;20030;-75
2023/05/04 05:38:48;;;;;;;8.15;3.67;;;;;;;;;;5145966;23;20133;-75
2023/05/04 05:42:10;;;;;;;;;;;;;;;;;;;;;
2023/05/04 05:44:19;;;;;;;5.80;3.50;;;;;;;;;;4953132;28;20391;-75
2023/05/04 05:46:45;;;;;;;6.20;3.20;;;;;;;;;;5034830;28;20033;-75
2023/05/04 05:49:11;;;;;;;7.22;3.72;;;;;;;;;;5034672;28;20032;-75
2023/05/04 05:51:37;;;;;;;11.90;4.47;;;;;;;;;;5034802;28;20030;-75
2023/05/04 05:54:03;;;;;;;8.48;3.60;;;;;;;;;;5016160;28;20507;-75
2023/05/04 05:56:30;;;;;;;10.27;3.25;;;;;;;;;;5034435;28;20021;-75
2023/05/04 05:58:56;;;;;;;6.45;3.15;;;;;;;;;;5034010;28;20028;-75
2023/05/04 06:01:22;;;;;;;18.85;3.78;;;;;;;;;;5034423;28;20026;-75
2023/05/04 06:03:48;;;;;;;7.97;3.40;;;;;;;;;;5034483;28;20391;-75
2023/05/04 06:06:14;;;;;;;7.88;2.95;;;;;;;;;;5034556;28;20025;-75
2023/05/04 06:08:40;;;;;;;7.20;2.63;;;;;;;;;;5033951;28;20024;-75
2023/05/04 06:11:06;;;;;;;11.02;3.63;;;;;;;;;;5016452;28;20108;-75
2023/05/04 06:13:32;;;;;;;6.80;3.58;;;;;;;;;;5034171;28;20025;-75
2023/05/04 06:15:58;;;;;;;8.50;3.33;;;;;;;;;;5034126;28;20029;-75
2023/05/04 06:18:24;;;;;;;7.60;3.83;;;;;;;;;;5033633;28;20032;-75
2023/05/04 06:20:57;;;;;;;4.60;3.08;;;;;;;;;;5034281;28;20101;-75
2023/05/04 06:23:24;;;;;;;9.55;3.50;;;;;;;;;;5034093;28;20092;-74
2023/05/04 06:25:50;;;;;;;6.53;3.38;;;;;;;;;;5033864;28;20450;-75
2023/05/04 06:28:16;;;;;;;9.00;3.70;;;;;;;;;;5034795;28;20053;-76
2023/05/04 06:30:43;;;;;;;12.68;3.53;;;;;;;;;;5033904;28;20025;-75
2023/05/04 06:33:09;;;;;;;6.00;3.33;;;;;;;;;;5016045;28;20191;-74
2023/05/04 06:35:35;;;;;;;6.70;3.40;;;;;;;;;;5033842;28;20029;-74
2023/05/04 06:38:02;;;;;;;8.43;3.45;;;;;;;;;;5033368;28;20067;-74
2023/05/04 06:40:28;;;;;;;5.07;2.97;;;;;;;;;;5033754;28;20029;-75
2023/05/04 06:42:54;;;;;;;7.03;3.67;;;;;;;;;;5033677;28;20344;-74
2023/05/04 06:45:20;;;;;;;7.18;3.40;;;;;;;;;;5015608;28;20018;-74
2023/05/04 06:47:46;;;;;;;8.80;3.53;;;;;;;;;;5033133;28;20029;-74
2023/05/04 06:50:12;;;;;;;8.85;3.53;;;;;;;;;;5033552;28;20060;-75
2023/05/04 06:52:39;;;;;;;9.25;4.07;;;;;;;;;;5033376;28;20083;-75
2023/05/04 06:55:06;;;;;;;9.02;3.83;;;;;;;;;;5033304;28;20052;-75
2023/05/04 06:57:32;;;;;;;9.75;3.63;;;;;;;;;;5032386;28;20021;-75
2023/05/04 06:59:58;;;;;;;5.43;3.72;;;;;;;;;;5033117;28;20423;-74
2023/05/04 07:02:24;;;;;;;10.15;3.85;;;;;;;;;;5033029;28;20025;-75
2023/05/04 07:04:51;;;;;;;8.30;3.42;;;;;;;;;;5032948;28;20045;-75
2023/05/04 07:07:18;;;;;;;10.50;3.28;;;;;;;;;;5032243;28;20029;-75
2023/05/04 07:09:46;;;;;;;6.60;3.10;;;;;;;;;;5033275;28;20026;-75
2023/05/04 07:12:12;;;;;;;9.57;3.22;;;;;;;;;;5032967;28;20034;-75
2023/05/04 07:14:38;;;;;;;9.13;3.38;;;;;;;;;;5032932;28;20369;-74
2023/05/04 07:17:04;;;;;;;5.20;3.45;;;;;;;;;;5032324;28;20030;-75
2023/05/04 07:19:30;;;;;;;7.85;3.78;;;;;;;;;;5032992;28;20029;-75
2023/05/04 07:21:56;;;;;;;10.02;3.83;;;;;;;;;;5033041;28;20014;-75
2023/05/04 07:24:22;;;;;;;7.65;3.70;;;;;;;;;;5030963;28;20029;-75
2023/05/04 07:26:48;;;;;;;10.85;4.05;;;;;;;;;;5021021;28;20029;-74
2023/05/04 07:29:14;;;;;;;9.43;3.30;;;;;;;;;;5021269;28;20041;-74
2023/05/04 07:31:40;;;;;;;7.93;3.67;;;;;;;;;;5026809;28;20039;-75
2023/05/04 07:34:06;;;;;;;8.48;3.50;;;;;;;;;;5032575;28;20017;-74
2023/05/04 07:36:34;;;;;;;9.98;4.07;;;;;;;;;;5033683;28;20033;-73
2023/05/04 07:39:00;;;;;;;8.75;3.55;;;;;;;;;;5035117;28;20112;-74
2023/05/04 07:41:26;;;;;;;8.35;3.78;;;;;;;;;;5034811;28;20125;-75
2023/05/04 07:43:52;;;;;;;9.80;3.63;;;;;;;;;;5035201;28;20074;-74
2023/05/04 07:46:18;;;;;;;9.20;3.85;;;;;;;;;;5035643;28;20022;-74
2023/05/04 07:48:44;;;;;;;8.73;4.10;;;;;;;;;;5036360;28;20074;-74
2023/05/04 07:51:15;;;;;;;6.85;3.28;;;;;;;;;;5037020;28;20088;-74
2023/05/04 07:53:42;;;;;;;8.15;3.65;;;;;;;;;;5036438;28;20028;-75
2023/05/04 07:56:11;;;;;;;9.02;4.30;;;;;;;;;;5032938;28;20022;-75
2023/05/04 07:58:37;;;;;;;9.20;3.40;;;;;;;;;;5032322;28;20097;-75
2023/05/04 08:01:04;;;;;;;11.05;3.42;;;;;;;;;;5032814;28;20047;-74
2023/05/04 08:03:30;;;;;;;7.13;3.50;;;;;;;;;;5032425;28;20044;-74
2023/05/04 08:05:57;;;;;;;5.50;3.22;;;;;;;;;;5032270;28;20080;-76
2023/05/04 08:08:23;;;;;;;10.13;3.28;;;;;;;;;;5032213;28;20109;-76
2023/05/04 08:10:49;;;;;;;8.27;3.33;;;;;;;;;;5032698;28;20060;-76
2023/05/04 08:13:15;;;;;;;7.63;3.08;;;;;;;;;;5032071;28;20108;-76
2023/05/04 08:15:41;;;;;;;7.93;3.08;;;;;;;;;;5032296;28;20053;-75
2023/05/04 08:18:07;;;;;;;7.60;3.25;;;;;;;;;;5031668;28;20022;-75
2023/05/04 08:20:33;;;;;;;8.40;2.92;;;;;;;;;;5031933;28;20025;-75
2023/05/04 08:23:01;;;;;;;7.18;2.67;;;;;;;;;;5032261;28;20017;-75
2023/05/04 08:25:27;;;;;;;7.97;2.95;;;;;;;;;;5030734;28;20032;-75
2023/05/04 08:27:53;;;;;;;6.85;3.03;;;;;;;;;;5030139;28;20037;-74
2023/05/04 08:30:20;;;;;;;9.05;2.70;;;;;;;;;;5031544;28;20076;-75
2023/05/04 08:32:47;;;;;;;5.97;2.72;;;;;;;;;;5014354;28;20029;-74
2023/05/04 08:35:13;;;;;;;6.78;2.80;;;;;;;;;;5031592;28;20057;-75
2023/05/04 08:37:39;;;;;;;6.20;2.60;;;;;;;;;;5031055;28;20030;-74
2023/05/04 08:40:05;;;;;;;9.85;3.35;;;;;;;;;;5014001;28;20033;-74
2023/05/04 08:42:33;;;;;;;7.13;2.50;;;;;;;;;;5019452;28;20515;-75
2023/05/04 08:44:59;;;;;;;6.75;2.95;;;;;;;;;;4993081;28;20026;-74
2023/05/04 08:47:26;;;;;;;7.28;3.15;;;;;;;;;;4993997;28;20026;-74
2023/05/04 08:49:53;;;;;;;5.55;2.70;;;;;;;;;;5011977;28;20053;-74
2023/05/04 08:52:20;;;;;;;4.38;2.60;;;;;;;;;;5011942;28;20113;-74
2023/05/04 08:54:46;;;;;;;8.93;3.10;;;;;;;;;;5011935;28;20057;-76
2023/05/04 08:57:13;;;;;;;11.93;3.25;;;;;;;;;;5011724;28;20037;-75
2023/05/04 08:59:39;;;;;;;6.03;3.17;;;;;;;;;;5011949;28;20029;-74
2023/05/04 09:02:05;;;;;;;5.20;2.40;;;;;;;;;;5011959;28;20037;-75
2023/05/04 09:04:31;;;;;;;8.13;2.75;;;;;;;;;;5011798;28;20041;-75
2023/05/04 09:06:57;;;;;;;9.63;2.75;;;;;;;;;;5011581;28;20400;-75
2023/05/04 09:09:25;;;;;;;8.32;2.70;;;;;;;;;;5011658;28;20022;-75
2023/05/04 09:11:52;;;;;;;3.45;2.25;;;;;;;;;;5012002;28;20033;-75
2023/05/04 09:14:18;;;;;;;6.97;2.47;;;;;;;;;;5011547;28;20399;-75
2023/05/04 09:16:44;;;;;;;8.05;2.33;;;;;;;;;;5011476;28;20040;-75
2023/05/04 09:19:20;;;;;;;5.38;2.42;;;;;;;;;;4993967;28;20026;-75
2023/05/04 09:21:48;;;;;;;5.03;2.67;;;;;;;;;;5012049;28;20022;-74
2023/05/04 09:24:24;;;;;;;5.82;2.35;;;;;;;;;;5011817;28;20048;-75
2023/05/04 09:40:51;;;;;;;5.00;2.35;;;;;;;;;;5957153;22;20043;-75
2023/05/04 09:43:17;;;;;;;5.68;2.42;;;;;;;;;;5054817;28;20033;-74
2023/05/04 09:45:47;;;;;;;7.00;2.95;;;;;;;;;;5054781;28;20021;-76
2023/05/04 09:48:53;;;;;;;;;;;;;;;;;;;;;
2023/05/04 09:57:07;;;;;;;9.27;2.80;;;;;;;;;;5540782;23;20067;-73
2023/05/04 10:14:14;;;;;;;11.15;2.78;;;;;;;;;;5289375;22;20054;-74
2023/05/04 10:31:55;;;;;;;9.90;2.92;;;;;;;;;;5034012;28;20086;-74
2023/05/04 10:34:28;;;;;;;6.97;2.40;;;;;;;;;;5015989;28;20042;-74
2023/05/04 10:37:04;;;;;;;7.88;2.92;;;;;;;;;;5033849;28;20029;-74
2023/05/04 10:42:36;;;;;;;7.57;2.88;;;;;;;;;;5033694;28;20039;-74
2023/05/04 10:48:02;;;;;;;5.80;2.63;;;;;;;;;;5033579;28;20044;-74
2023/05/04 10:50:49;;;;;;;5.05;2.83;;;;;;;;;;5033334;28;20075;-76
2023/05/04 10:53:36;;;;;;;5.13;2.75;;;;;;;;;;5033357;28;20021;-74
2023/05/04 10:56:34;;;;;;;8.80;3.03;;;;;;;;;;5015478;28;20036;-74
2023/05/04 10:59:41;;;;;;;8.85;2.63;;;;;;;;;;5014875;28;20571;-75
2023/05/04 11:05:16;;;;;;;8.10;2.95;;;;;;;;;;4923555;29;20095;-74
2023/05/04 11:07:51;;;;;;;8.32;3.33;;;;;;;;;;4917757;29;20035;-74
2023/05/04 11:10:41;;;;;;;10.48;2.83;;;;;;;;;;4933185;29;20032;-74
2023/05/04 11:13:11;;;;;;;7.90;2.88;;;;;;;;;;4933516;29;20031;-74
2023/05/04 11:15:58;;;;;;;5.18;2.50;;;;;;;;;;4939731;28;20140;-73
2023/05/04 11:18:52;;;;;;;6.68;2.65;;;;;;;;;;5015058;28;20519;-74
2023/05/04 11:21:30;;;;;;;7.32;2.75;;;;;;;;;;5030095;28;20056;-75
2023/05/04 11:24:02;;;;;;;8.18;2.72;;;;;;;;;;5032901;28;20029;-75
2023/05/04 11:26:51;;;;;;;5.10;2.60;;;;;;;;;;5032828;28;20014;-75
2023/05/04 11:29:44;;;;;;;4.47;2.42;;;;;;;;;;5029767;28;20080;-75
2023/05/04 11:32:28;;;;;;;5.80;2.67;;;;;;;;;;5032378;28;20037;-75
2023/05/04 11:35:17;;;;;;;5.85;2.33;;;;;;;;;;5032861;28;20450;-75
2023/05/04 11:37:49;;;;;;;6.88;2.70;;;;;;;;;;5032462;28;20045;-75
2023/05/04 11:40:32;;;;;;;5.18;2.33;;;;;;;;;;5032544;28;20095;-75
2023/05/04 11:43:07;;;;;;;7.18;2.40;;;;;;;;;;5032255;28;20104;-75
2023/05/04 11:45:41;;;;;;;5.68;2.35;;;;;;;;;;5014784;28;20030;-75
2023/05/04 11:48:25;;;;;;;5.57;2.33;;;;;;;;;;5031209;28;20056;-75
2023/05/04 11:51:24;;;;;;;4.40;2.42;;;;;;;;;;5032308;28;20085;-75
2023/05/04 11:54:12;;;;;;;;;;;;;;;;;;;;;
2023/05/04 11:57:00;;;;;;;5.75;2.75;;;;;;;;;;5032272;28;20036;-75
2023/05/04 12:00:10;;;;;;;;;;;;;;;;;;;;;
2023/05/04 12:02:22;;;;;;;5.78;2.72;;;;;;;;;;5026813;28;20033;-75
2023/05/04 12:04:50;;;;;;;8.10;2.45;;;;;;;;;;5014126;28;20053;-75
2023/05/04 12:10:27;;;;;;;5.57;2.70;;;;;;;;;;5026729;28;20384;-74
2023/05/04 12:13:00;;;;;;;11.50;3.47;;;;;;;;;;5032558;28;20391;-75
2023/05/04 12:15:41;;;;;;;10.02;2.92;;;;;;;;;;5032089;28;20163;-74
2023/05/04 12:18:10;;;;;;;;;;;;;;;;;;5032303;28;20034;-74
2023/05/04 12:21:11;;;;;;;5.65;2.38;;;;;;;;;;5031882;28;19905;-75
2023/05/04 12:23:53;;;;;;;4.95;2.63;;;;;;;;;;5032179;28;20029;-74
2023/05/04 12:26:23;;;;;;;11.05;2.95;;;;;;;;;;5031855;28;20045;-75
2023/05/04 12:28:58;;;;;;;5.63;2.60;;;;;;;;;;5032847;28;20025;-75
2023/05/04 12:31:29;;;;;;;6.63;2.50;;;;;;;;;;5003772;28;20038;-75
2023/05/04 12:34:01;;;;;;;;;;;;;;;;;;5024961;28;20049;-75
2023/05/04 12:36:30;;;;;;;7.22;3.33;;;;;;;;;;5012342;28;19909;-74
2023/05/04 12:39:08;;;;;;;7.43;2.90;;;;;;;;;;5010816;28;20373;-75
2023/05/04 12:41:39;;;;;;;5.20;3.05;;;;;;;;;;5012087;28;20091;-75
2023/05/04 12:44:13;;;;;;;7.97;3.22;;;;;;;;;;4994151;28;20040;-75
2023/05/04 12:47:01;;;;;;;7.22;2.30;;;;;;;;;;5011940;28;20030;-74
2023/05/04 12:49:27;;;;;;;6.22;2.33;;;;;;;;;;5012109;28;20111;-74
2023/05/04 12:51:53;;;;;;;7.38;2.50;;;;;;;;;;5010041;28;20034;-76
2023/05/04 12:54:19;;;;;;;5.07;2.50;;;;;;;;;;5011624;28;20117;-74
2023/05/04 12:56:45;;;;;;;7.30;2.33;;;;;;;;;;5011180;28;20130;-75
2023/05/04 12:59:11;;;;;;;9.55;2.78;;;;;;;;;;5011306;28;20373;-74
2023/05/04 13:01:38;;;;;;;5.72;2.10;;;;;;;;;;5011095;28;20026;-75
2023/05/04 13:04:04;;;;;;;5.88;2.65;;;;;;;;;;5014370;28;20036;-73
2023/05/04 13:06:30;;;;;;;4.97;2.53;;;;;;;;;;4998209;28;20029;-74
2023/05/04 13:08:56;;;;;;;6.18;2.17;;;;;;;;;;5015580;28;20148;-74
2023/05/04 13:11:23;;;;;;;7.70;2.83;;;;;;;;;;5015628;28;20443;-74
2023/05/04 13:13:51;;;;;;;7.40;2.78;;;;;;;;;;4997913;28;20061;-75
2023/05/04 13:16:17;;;;;;;7.15;2.78;;;;;;;;;;5015645;28;20060;-74
2023/05/04 13:19:06;;;;;;;4.90;2.38;;;;;;;;;;5050697;23;20061;-74
2023/05/04 13:21:45;;;;;;;5.88;2.97;;;;;;;;;;5053321;28;20032;-74
2023/05/04 13:27:43;;;;;;;8.35;2.65;;;;;;;;;;5053261;22;20077;-75
2023/05/04 13:40:24;;;;;;;;;;;;;;;;;;;;;
2023/05/04 13:43:38;;;;;;;;;;;;;;;;;;;;;
2023/05/04 14:23:55;;;;;;;;;;;;;;;;;;;;;
2023/05/04 14:26:58;;;;;;;6.00;2.17;;;;;;;;;;5033852;28;20074;-75
2023/05/04 14:30:14;;;;;;;;;;;;;;;;;;;;;
2023/05/04 14:51:24;;;;;;;11.65;2.45;;;;;;;;;;5012226;28;20108;-75
2023/05/04 14:53:51;;;;;;;6.68;2.58;;;;;;;;;;5013562;28;20018;-75
2023/05/04 14:56:17;;;;;;;6.18;2.33;;;;;;;;;;5013514;28;20034;-76
2023/05/04 14:59:08;;;;;;;6.28;2.38;;;;;;;;;;5045383;23;20065;-76
2023/05/04 15:01:37;;;;;;;;;;;;;;;;;;5032943;28;20021;-76
2023/05/04 15:07:42;;;;;;;6.13;2.67;;;;;;;;;;5060546;22;20044;-74
2023/05/04 15:10:32;;;;;;;6.95;2.70;;;;;;;;;;5048378;28;20041;-75
2023/05/04 15:13:14;;;;;;;4.60;2.40;;;;;;;;;;5052995;28;20036;-75
2023/05/04 15:16:28;;;;;;;;;;;;;;;;;;;;;
2023/05/04 15:25:28;;;;;;;;;;;;;;;;;;;;;
2023/05/04 15:34:53;;;;;;;7.63;2.42;;;;;;;;;;4928001;28;20101;-74
2023/05/04 15:37:19;;;;;;;;;;;;;;;;;;5015445;28;20131;-74
2023/05/04 15:39:45;;;;;;;3.67;1.98;;;;;;;;;;5052433;28;19909;-75
2023/05/04 15:42:11;;;;;;;4.00;2.10;;;;;;;;;;5052855;28;20510;-75
2023/05/04 15:44:37;;;;;;;6.20;2.50;;;;;;;;;;5052494;28;20036;-74
2023/05/04 15:58:29;;;;;;;9.93;2.30;;;;;;;;;;5053692;23;20508;-74
2023/05/04 16:00:55;;;;;;;6.43;2.70;;;;;;;;;;5012722;28;20452;-74
2023/05/04 16:03:22;;;;;;;6.28;2.47;;;;;;;;;;5012733;28;20017;-74
2023/05/04 16:05:50;;;;;;;3.33;1.88;;;;;;;;;;5012699;28;20024;-76
2023/05/04 16:08:41;;;;;;;4.45;2.08;;;;;;;;;;5031396;23;20527;-75
2023/05/04 16:24:39;;;;;;;;;;;;;;;;;;;;;
2023/05/04 16:27:26;;;;;;;6.53;2.42;;;;;;;;;;5031726;28;20036;-74
2023/05/04 16:36:35;;;;;;;;;;;;;;;;;;;;;
2023/05/04 16:43:12;;;;;;;;;;;;;;;;;;;;;
2023/05/04 17:20:13;;;;;;;6.93;2.70;;;;;;;;;;5119078;23;20049;-74
2023/05/04 17:23:00;;;;;;;;;;;;;;;;;;;;;
2023/05/04 17:25:51;;;;;;;9.35;2.85;;;;;;;;;;5020447;28;20044;-75
2023/05/04 17:38:13;;;;;;;4.90;2.50;;;;;;;;;;5066387;22;20401;-75
2023/05/04 17:44:02;;;;;;;7.72;2.80;;;;;;;;;;4989962;28;20121;-75
2023/05/04 17:52:43;;;;;;;;;;;;;;;;;;;;;
2023/05/04 17:55:12;;;;;;;7.57;2.45;;;;;;;;;;4973613;28;20733;-75
2023/05/04 18:00:25;;;;;;;5.63;2.22;;;;;;;;;;5013274;28;20120;-75
2023/05/04 18:05:49;;;;;;;6.82;2.40;;;;;;;;;;5015117;28;20033;-75
2023/05/04 18:11:58;;;;;;;5.05;2.80;;;;;;;;;;5021468;28;20053;-74
2023/05/04 18:17:49;;;;;;;3.80;2.60;;;;;;;;;;5190762;23;20071;-74
2023/05/04 18:20:18;;;;;;;9.73;3.20;;;;;;;;;;5033422;28;20119;-75
2023/05/04 18:22:58;;;;;;;7.07;3.00;;;;;;;;;;5034538;28;20068;-74
2023/05/04 18:25:36;;;;;;;5.88;2.60;;;;;;;;;;5034566;28;20076;-74
2023/05/04 18:28:11;;;;;;;5.20;2.72;;;;;;;;;;5029999;28;20029;-74
2023/05/04 18:30:43;;;;;;;5.63;2.95;;;;;;;;;;5054404;28;20021;-74
2023/05/04 18:39:26;;;;;;;5.55;2.88;;;;;;;;;;5054348;28;20047;-74
2023/05/04 18:42:28;;;;;;;7.93;3.25;;;;;;;;;;5053195;28;20032;-74
2023/05/04 18:44:59;;;;;;;7.03;3.67;;;;;;;;;;4953714;29;20038;-74
2023/05/04 18:47:35;;;;;;;5.88;3.10;;;;;;;;;;5037081;28;20498;-74
2023/05/04 18:52:51;;;;;;;10.85;3.20;;;;;;;;;;5022918;28;20051;-74
2023/05/04 18:55:45;;;;;;;;;;;;;;;;;;;;;
2023/05/04 19:11:06;;;;;;;7.40;2.90;;;;;;;;;;4989868;28;20038;-75
2023/05/04 19:23:08;;;;;;;;;;;;;;;;;;;;;
2023/05/04 19:59:04;;;;;;;8.32;2.88;;;;;;;;;;5057219;23;20085;-74
2023/05/04 20:01:30;;;;;;;5.60;2.90;;;;;;;;;;5032121;28;20060;-74
2023/05/04 20:03:56;;;;;;;7.68;2.80;;;;;;;;;;5032648;28;20060;-74
2023/05/04 20:06:22;;;;;;;6.88;3.40;;;;;;;;;;5032433;28;20057;-74
2023/05/04 20:17:36;;;;;;;4.57;2.38;;;;;;;;;;5210176;23;20052;-74
2023/05/04 20:20:03;;;;;;;4.13;2.88;;;;;;;;;;5051811;28;20048;-74
2023/05/04 20:22:29;;;;;;;5.93;2.70;;;;;;;;;;5052574;28;20364;-74
2023/05/04 20:24:55;;;;;;;7.95;3.13;;;;;;;;;;5052105;28;20507;-74
2023/05/04 20:41:06;;;;;;;;;;;;;;;;;;;;;
2023/05/04 20:44:13;;;;;;;4.88;2.83;;;;;;;;;;5005794;28;20079;-75
2023/05/04 21:05:37;;;;;;;4.95;2.97;;;;;;;;;;4988568;28;20068;-75
2023/05/04 21:09:03;;;;;;;;;;;;;;;;;;;;;
2023/05/04 21:17:58;;;;;;;6.00;3.20;;;;;;;;;;4989913;28;19917;-75
2023/05/04 21:30:09;;;;;;;;;;;;;;;;;;;;;
2023/05/04 21:32:45;;;;;;;;;;;;;;;;;;4976426;28;20042;-74
2023/05/04 21:38:57;;;;;;;;;;;;;;;;;;;;;
2023/05/04 21:42:01;;;;;;;7.93;3.90;;;;;;;;;;4973836;28;20041;-75
2023/05/04 21:45:04;;;;;;;7.18;3.30;;;;;;;;;;4922368;29;20075;-75
2023/05/04 21:47:53;;;;;;;6.00;3.47;;;;;;;;;;4945178;28;20477;-75
2023/05/04 21:53:46;;;;;;;14.13;3.80;;;;;;;;;;4976583;28;20034;-75
2023/05/04 21:56:12;;;;;;;6.18;3.67;;;;;;;;;;4975399;28;20038;-74
2023/05/04 21:58:39;;;;;;;7.22;3.50;;;;;;;;;;4975530;28;20100;-75
2023/05/04 22:01:09;;;;;;;13.55;4.00;;;;;;;;;;4976184;28;20019;-75
2023/05/04 22:03:35;;;;;;;11.48;4.28;;;;;;;;;;4976022;28;20109;-74
2023/05/04 22:06:01;;;;;;;9.75;4.38;;;;;;;;;;4975979;28;20031;-74
2023/05/04 22:11:54;;;;;;;8.38;4.20;;;;;;;;;;4997437;28;20053;-74
2023/05/04 22:14:33;;;;;;;;;;;;;;;;;;;;;
2023/05/04 22:17:42;;;;;;;;;;;;;;;;;;;;;
2023/05/04 22:20:25;;;;;;;;;;;;;;;;;;;;;
2023/05/04 22:35:53;;;;;;;7.60;4.10;;;;;;;;;;4954107;28;20035;-74
2023/05/04 22:41:42;;;;;;;;;;;;;;;;;;;;;
2023/05/04 22:44:42;;;;;;;7.00;3.50;;;;;;;;;;5018582;28;20029;-74
2023/05/04 22:47:23;;;;;;;7.20;3.85;;;;;;;;;;4937367;29;20090;-75
2023/05/04 22:53:37;;;;;;;10.10;3.40;;;;;;;;;;4896298;29;20578;-75
2023/05/04 22:56:35;;;;;;;12.55;4.55;;;;;;;;;;4896160;29;20044;-74
2023/05/04 23:02:38;;;;;;;8.48;4.05;;;;;;;;;;5033338;28;20029;-75
2023/05/04 23:05:04;;;;;;;6.70;4.53;;;;;;;;;;5015792;28;20072;-75
2023/05/04 23:07:30;;;;;;;7.88;4.32;;;;;;;;;;5033252;28;20017;-74
2023/05/04 23:09:56;;;;;;;9.57;4.55;;;;;;;;;;5033521;28;20124;-75
2023/05/04 23:12:24;;;;;;;7.60;4.38;;;;;;;;;;5015447;28;20030;-75
2023/05/04 23:14:53;;;;;;;12.05;4.45;;;;;;;;;;5033862;28;20040;-75
2023/05/04 23:17:20;;;;;;;10.15;4.57;;;;;;;;;;5032777;28;20033;-74
2023/05/04 23:19:46;;;;;;;8.98;4.47;;;;;;;;;;5015746;28;20055;-74
2023/05/04 23:22:12;;;;;;;10.25;4.75;;;;;;;;;;5033367;28;20021;-75
2023/05/04 23:24:38;;;;;;;7.60;4.43;;;;;;;;;;5033550;28;20488;-75
2023/05/04 23:27:04;;;;;;;9.43;4.90;;;;;;;;;;5015389;28;20029;-74
2023/05/04 23:29:31;;;;;;;9.30;5.45;;;;;;;;;;5015490;28;20029;-75
2023/05/04 23:31:57;;;;;;;10.82;5.63;;;;;;;;;;5033317;28;20025;-75
2023/05/04 23:34:23;;;;;;;10.45;4.85;;;;;;;;;;5033073;28;20022;-75
2023/05/04 23:47:24;;;;;;;8.25;5.00;;;;;;;;;;4976208;28;20070;-74
2023/05/04 23:50:03;;;;;;;;;;;;;;;;;;;;;
2023/05/04 23:59:58;;;;;;;;;;;;;;;;;;;;;
